»·PEaware :: N2RF KMRY-KRDD

N2RF :: KMRY-KRDD

FLIGHT INFORMATION

Flight Status: Arrived
Operator: Privately registered:
United States
More flights under this callsign
Pilot: Max W. (2591)
Aircraft: BEECH AIRCRAFT SUPER KING AIR 350
(B350)
More flights by this aircraft type
Origin: KMRY Monterey Peninsula
United States
Destination: KRDD Redding Mun
United States
More flights between these airports :: More routes between these airports
Route: +
File this flight plan on PilotEdge
Remarks:
Altitude:
(Current/Filed)
12,500ft
Speed:
(Current/Filed)
0kts
Departed: 09-Nov-20 08:07 PM
Arrived: 09-Nov-20 09:04 PM
Distance/Time
Traveled:
236nm/0:57
Distance/Time
To Go:
Arrived

Flight Plot

Page will automatically refresh every two minutes.

Flight plan parsing failed; only flown route is shown


Map Options




Map Legend


Flown Route
Filed Route
Departure Airport
Arrival Airport
Navaid (VOR, NDB)
Fix

Horizontal Profiles

Position Reports

Time Latitude Longitude Heading Altitude Ground
Speed
09-Nov-20 19:33 36.587408 -121.838722 292 167ft 0kts
09-Nov-20 19:34 36.587408 -121.838722 292 167ft 0kts
09-Nov-20 19:35 36.587408 -121.838722 292 167ft 0kts
09-Nov-20 19:36 36.587408 -121.838722 292 167ft 0kts
09-Nov-20 19:37 36.587408 -121.838722 292 167ft 0kts
09-Nov-20 19:38 36.587408 -121.838722 292 167ft 0kts
09-Nov-20 19:39 36.587408 -121.838722 292 167ft 0kts
09-Nov-20 19:40 36.587408 -121.838722 292 167ft 0kts
09-Nov-20 19:41 36.587408 -121.838722 292 167ft 0kts
09-Nov-20 19:42 36.587408 -121.838722 292 167ft 0kts
09-Nov-20 19:43 36.587408 -121.838722 292 167ft 0kts
09-Nov-20 19:44 36.587408 -121.838722 292 167ft 0kts
09-Nov-20 19:45 36.587408 -121.838722 292 167ft 0kts
09-Nov-20 19:46 36.587408 -121.838722 292 167ft 0kts
09-Nov-20 19:47 36.587408 -121.838722 292 167ft 0kts
09-Nov-20 19:48 36.587408 -121.838722 292 167ft 0kts
09-Nov-20 19:49 36.587408 -121.838722 292 167ft 0kts
09-Nov-20 19:50 36.587408 -121.838722 292 167ft 0kts
09-Nov-20 19:51 36.587408 -121.838722 292 167ft 0kts
09-Nov-20 19:52 36.587408 -121.838722 292 167ft 0kts
09-Nov-20 19:53 36.587408 -121.838722 292 167ft 0kts
09-Nov-20 19:54 36.587408 -121.838722 292 167ft 0kts
09-Nov-20 19:55 36.587412 -121.838733 292 167ft 0kts
09-Nov-20 19:56 36.587566 -121.839136 203 167ft 0kts
09-Nov-20 19:57 36.586835 -121.838190 113 167ft 5kts
09-Nov-20 19:58 36.585967 -121.835609 113 167ft 12kts
09-Nov-20 19:59 36.585248 -121.833502 147 167ft 0kts
09-Nov-20 20:00 36.585248 -121.833502 147 167ft 0kts
09-Nov-20 20:01 36.585248 -121.833502 147 167ft 0kts
09-Nov-20 20:02 36.585248 -121.833502 147 167ft 0kts
09-Nov-20 20:03 36.585248 -121.833502 147 167ft 0kts
09-Nov-20 20:04 36.585248 -121.833502 147 167ft 0kts
09-Nov-20 20:05 36.584900 -121.833820 292 167ft 0kts
09-Nov-20 20:06 36.586874 -121.839610 290 167ft 110kts
09-Nov-20 20:07 36.608660 -121.852090 20 2295ft 123kts
09-Nov-20 20:08 36.653488 -121.853350 351 4067ft 177kts
09-Nov-20 20:09 36.702879 -121.859864 354 6356ft 182kts
09-Nov-20 20:10 36.753635 -121.865480 355 8481ft 186kts
09-Nov-20 20:11 36.805139 -121.871072 355 10600ft 189kts
09-Nov-20 20:12 36.857568 -121.876778 355 12600ft 197kts
09-Nov-20 20:13 36.924364 -121.883738 355 12603ft 270kts
09-Nov-20 20:14 36.995523 -121.891246 355 12595ft 287kts
09-Nov-20 20:15 37.070137 -121.899306 355 12592ft 292kts
09-Nov-20 20:16 37.151484 -121.907877 355 12590ft 294kts
09-Nov-20 20:17 37.233117 -121.916645 355 12586ft 295kts
09-Nov-20 20:18 37.314894 -121.925600 355 12582ft 295kts
09-Nov-20 20:19 37.396777 -121.934599 355 12583ft 295kts
09-Nov-20 20:20 37.478421 -121.943588 355 12585ft 293kts
09-Nov-20 20:21 37.558895 -121.952462 355 12584ft 286kts
09-Nov-20 20:22 37.636678 -121.961060 354 12582ft 277kts
09-Nov-20 20:23 37.712785 -121.969501 354 12611ft 271kts
09-Nov-20 20:24 37.787435 -121.977794 354 12612ft 268kts
09-Nov-20 20:25 37.861522 -121.986044 354 12614ft 267kts
09-Nov-20 20:26 37.935478 -121.994290 354 12616ft 266kts
09-Nov-20 20:27 38.009476 -122.002558 354 12615ft 266kts
09-Nov-20 20:28 38.083284 -122.010823 354 12614ft 266kts
09-Nov-20 20:29 38.156713 -122.019061 354 12622ft 267kts
09-Nov-20 20:30 38.230687 -122.027375 354 12621ft 267kts
09-Nov-20 20:31 38.304779 -122.035721 354 12623ft 267kts
09-Nov-20 20:32 38.378940 -122.044093 354 12627ft 267kts
09-Nov-20 20:33 38.453229 -122.052511 355 12625ft 270kts
09-Nov-20 20:35 38.529410 -122.061170 355 12624ft 280kts
09-Nov-20 20:36 38.608712 -122.070180 355 12626ft 290kts
09-Nov-20 20:37 38.689582 -122.079358 355 12625ft 294kts
09-Nov-20 20:38 38.771151 -122.088662 355 12624ft 295kts
09-Nov-20 20:39 38.852933 -122.098015 355 12621ft 295kts
09-Nov-20 20:40 38.934630 -122.107381 355 12619ft 295kts
09-Nov-20 20:41 39.016555 -122.116796 355 12619ft 295kts
09-Nov-20 20:42 39.098479 -122.126233 355 12619ft 295kts
09-Nov-20 20:43 39.178325 -122.135450 355 12619ft 295kts
09-Nov-20 20:44 39.260039 -122.144905 355 12619ft 295kts
09-Nov-20 20:45 39.341859 -122.154395 355 12619ft 295kts
09-Nov-20 20:46 39.423772 -122.163919 355 12619ft 295kts
09-Nov-20 20:47 39.505616 -122.173458 355 12619ft 295kts
09-Nov-20 20:48 39.583875 -122.182587 355 12620ft 291kts
09-Nov-20 20:49 39.662797 -122.191615 354 12623ft 261kts
09-Nov-20 20:50 39.733717 -122.200107 353 12614ft 254kts
09-Nov-20 20:51 39.803985 -122.208377 353 12615ft 253kts
09-Nov-20 20:52 39.874242 -122.216632 353 12615ft 252kts
09-Nov-20 20:53 39.944310 -122.224925 353 12613ft 253kts
09-Nov-20 20:53 40.002461 -122.231821 353 12613ft 252kts
09-Nov-20 20:54 40.072450 -122.240571 353 12612ft 252kts
09-Nov-20 20:55 40.140943 -122.248762 353 12622ft 253kts
09-Nov-20 20:56 40.206736 -122.256595 353 11234ft 218kts
09-Nov-20 20:58 40.269980 -122.262821 352 8580ft 210kts
09-Nov-20 20:58 40.317184 -122.268550 354 6612ft 206kts
09-Nov-20 20:59 40.372563 -122.278383 352 4317ft 200kts
09-Nov-20 21:00 40.421277 -122.291465 351 2863ft 168kts
09-Nov-20 21:01 40.462871 -122.295484 2 1555ft 122kts
09-Nov-20 21:02 40.493167 -122.294981 1 675ft 106kts
09-Nov-20 21:03 40.508376 -122.296235 300 497ft 9kts

Navigation Log

Ident Type
Flight plan parsing failed, navigation log unavailable